Time;durP1;ratioP1;P1;durP2;ratioP2;P2;SDS_P1;SDS_P2;PMS_P1;PMS_P2;Temp;Humidity;BMP_temperature;BMP_pressure;BME280_temperature;BME280_humidity;BME280_pressure;Samples;Min_cycle;Max_cycle;Signal;HPM_P1;HPM_P2
2021/12/16 00:02:13;;;;;;;;;;;8.00;94.30;;;;;;5009536;28;20439;-61
2021/12/16 00:07:20;;;;;;;;;;;7.90;94.40;;;;;;5008292;28;19921;-61
2021/12/16 00:09:55;;;;;;;;;;;7.90;94.40;;;;;;5008311;28;19917;-61
2021/12/16 00:31:50;;;;;;;;;;;7.90;94.30;;;;;;5008780;28;20268;-61
2021/12/16 00:34:16;;;;;;;;;;;7.90;94.30;;;;;;4991607;28;19913;-61
2021/12/16 00:36:42;;;;;;;;;;;7.90;94.30;;;;;;4990840;28;20007;-61
2021/12/16 00:39:15;;;;;;;;;;;7.90;94.30;;;;;;5007769;28;19912;-61
2021/12/16 00:41:42;;;;;;;;;;;7.90;94.30;;;;;;5007543;28;20400;-61
2021/12/16 00:44:20;;;;;;;;;;;7.90;94.30;;;;;;4990065;28;20015;-61
2021/12/16 00:54:43;;;;;;;;;;;7.80;94.40;;;;;;5011184;28;19928;-61
2021/12/16 00:57:13;;;;;;;;;;;7.80;94.30;;;;;;5024729;28;19921;-61
2021/12/16 00:59:41;;;;;;;;;;;7.80;94.20;;;;;;4992002;28;19960;-61
2021/12/16 01:07:55;;;;;;;;;;;7.80;94.20;;;;;;5022276;28;19936;-61
2021/12/16 01:33:34;;;;;;;;;;;7.80;94.20;;;;;;5007267;28;19924;-61
2021/12/16 01:36:15;;;;;;;;;;;7.70;94.30;;;;;;5022185;28;20323;-61
2021/12/16 01:38:50;;;;;;;;;;;7.70;94.30;;;;;;5013975;28;20378;-61
2021/12/16 01:49:46;;;;;;;;;;;7.70;94.20;;;;;;5020599;28;19920;-61
2021/12/16 01:59:36;;;;;;;;;;;7.70;94.30;;;;;;5022061;28;19929;-61
2021/12/16 02:02:11;;;;;;;;;;;7.70;94.30;;;;;;5006619;28;20604;-61
2021/12/16 02:04:44;;;;;;;;;;;7.50;94.20;;;;;;5009349;28;19928;-61
2021/12/16 02:07:28;;;;;;;;;;;7.70;94.30;;;;;;5025613;28;19921;-61
2021/12/16 02:10:01;;;;;;;;;;;7.70;94.30;;;;;;5012134;28;19960;-61
2021/12/16 02:36:35;;;;;;;;;;;7.60;94.30;;;;;;5008105;28;19917;-61
2021/12/16 02:39:04;;;;;;;;;;;7.60;94.30;;;;;;5024227;28;19917;-61
2021/12/16 02:41:29;;;;;;;;;;;7.60;94.20;;;;;;5007891;28;19920;-61
2021/12/16 02:49:23;;;;;;;;;;;7.60;94.20;;;;;;5025480;28;20113;-61
2021/12/16 02:51:49;;;;;;;;;;;7.60;94.20;;;;;;4993021;28;19921;-61
2021/12/16 02:54:14;;;;;;;;;;;7.60;94.20;;;;;;5023445;28;21276;-61
2021/12/16 02:56:40;;;;;;;;;;;7.60;94.20;;;;;;5024299;28;19917;-61
2021/12/16 02:59:05;;;;;;;;;;;7.60;94.20;;;;;;5008075;28;20384;-61
2021/12/16 03:01:33;;;;;;;;;;;7.60;94.20;;;;;;5008063;28;19964;-61
2021/12/16 03:03:59;;;;;;;;;;;7.60;94.40;;;;;;5024763;28;19917;-61
2021/12/16 03:06:26;;;;;;;;;;;7.60;94.10;;;;;;5006947;28;19928;-61
2021/12/16 03:08:52;;;;;;;;;;;7.60;94.10;;;;;;5024575;28;19921;-61
2021/12/16 03:11:26;;;;;;;;;;;7.60;94.10;;;;;;5007194;28;19913;-61
2021/12/16 03:14:58;;;;;;;;;;;7.60;94.10;;;;;;5009080;28;19921;-61
2021/12/16 03:19:27;;;;;;;;;;;7.60;94.10;;;;;;5023842;28;20226;-61
2021/12/16 03:21:56;;;;;;;;;;;7.60;94.10;;;;;;5011087;28;19917;-61
2021/12/16 03:32:05;;;;;;;;;;;7.60;94.10;;;;;;5009406;28;19925;-61
2021/12/16 03:37:15;;;;;;;;;;;7.50;94.10;;;;;;5027124;28;19913;-61
2021/12/16 03:39:44;;;;;;;;;;;7.50;94.10;;;;;;4994001;28;20007;-61
2021/12/16 03:42:09;;;;;;;;;;;7.50;94.10;;;;;;5006954;28;19969;-61
2021/12/16 03:44:52;;;;;;;;;;;7.50;94.10;;;;;;5009056;28;19956;-61
2021/12/16 03:47:17;;;;;;;;;;;7.50;94.10;;;;;;5009607;28;19921;-61
2021/12/16 03:49:43;;;;;;;;;;;7.50;94.00;;;;;;5006221;28;19920;-61
2021/12/16 03:52:09;;;;;;;;;;;7.50;94.00;;;;;;5018903;28;19917;-61
2021/12/16 03:54:40;;;;;;;;;;;7.50;93.90;;;;;;5007931;28;19921;-61
2021/12/16 03:57:07;;;;;;;;;;;7.50;94.00;;;;;;5022461;28;19921;-61
2021/12/16 03:59:33;;;;;;;;;;;7.50;94.00;;;;;;5007212;28;20004;-60
2021/12/16 04:01:59;;;;;;;;;;;7.50;94.00;;;;;;5005878;28;20079;-61
2021/12/16 04:04:24;;;;;;;;;;;7.50;94.00;;;;;;5007440;28;20444;-61
2021/12/16 04:06:50;;;;;;;;;;;7.50;94.00;;;;;;4990853;28;19921;-61
2021/12/16 04:09:15;;;;;;;;;;;7.50;94.00;;;;;;5006895;28;19909;-61
2021/12/16 04:11:44;;;;;;;;;;;7.50;94.00;;;;;;5022201;28;20011;-60
2021/12/16 04:14:11;;;;;;;;;;;7.50;94.00;;;;;;5005847;28;20269;-61
2021/12/16 04:16:39;;;;;;;;;;;7.40;93.90;;;;;;5006183;28;20344;-61
2021/12/16 04:19:09;;;;;;;;;;;7.50;93.90;;;;;;5025093;28;19959;-61
2021/12/16 04:21:35;;;;;;;;;;;7.40;93.90;;;;;;4991375;28;20249;-61
2021/12/16 04:24:00;;;;;;;;;;;7.40;93.90;;;;;;4990372;28;19933;-60
2021/12/16 04:26:26;;;;;;;;;;;7.40;93.90;;;;;;5021578;28;19943;-61
2021/12/16 04:28:52;;;;;;;;;;;7.40;93.90;;;;;;5006671;28;19924;-60
2021/12/16 04:31:17;;;;;;;;;;;7.40;93.90;;;;;;5006921;28;20065;-61
2021/12/16 04:33:43;;;;;;;;;;;7.40;94.20;;;;;;5006559;28;19932;-61
2021/12/16 04:36:09;;;;;;;;;;;7.40;93.90;;;;;;4989938;28;20353;-61
2021/12/16 04:38:35;;;;;;;;;;;7.40;93.80;;;;;;5024994;28;19921;-60
2021/12/16 04:41:01;;;;;;;;;;;7.40;93.80;;;;;;5005406;28;20000;-61
2021/12/16 04:43:38;;;;;;;;;;;7.40;93.90;;;;;;4989819;28;20289;-61
2021/12/16 04:46:04;;;;;;;;;;;7.40;93.80;;;;;;4991085;28;19917;-61
2021/12/16 04:48:29;;;;;;;;;;;7.40;93.80;;;;;;5007899;28;20016;-61
2021/12/16 04:50:55;;;;;;;;;;;7.40;93.80;;;;;;5004244;28;19913;-61
2021/12/16 04:53:20;;;;;;;;;;;7.40;93.90;;;;;;4990741;28;20293;-62
2021/12/16 04:55:46;;;;;;;;;;;7.40;93.80;;;;;;5022311;28;19963;-61
2021/12/16 04:58:11;;;;;;;;;;;7.40;93.80;;;;;;5021892;28;20016;-61
2021/12/16 05:00:37;;;;;;;;;;;7.40;93.80;;;;;;5006378;28;19924;-61
2021/12/16 05:03:02;;;;;;;;;;;7.30;93.70;;;;;;4991125;28;19921;-61
2021/12/16 05:05:28;;;;;;;;;;;7.30;93.70;;;;;;4990589;28;19928;-61
2021/12/16 05:07:53;;;;;;;;;;;7.30;93.80;;;;;;5006985;28;19948;-61
2021/12/16 05:10:19;;;;;;;;;;;7.30;93.80;;;;;;4991524;28;19921;-60
2021/12/16 05:12:46;;;;;;;;;;;7.40;93.70;;;;;;5018826;28;19917;-61
2021/12/16 05:15:13;;;;;;;;;;;7.40;93.70;;;;;;5006526;28;20384;-61
2021/12/16 05:17:45;;;;;;;;;;;7.30;93.70;;;;;;5003524;28;19921;-60
2021/12/16 05:20:12;;;;;;;;;;;7.40;93.80;;;;;;5008326;28;19913;-61
2021/12/16 05:25:38;;;;;;;;;;;7.30;93.80;;;;;;5010303;28;19923;-61
2021/12/16 05:28:03;;;;;;;;;;;7.30;93.80;;;;;;5009983;28;20281;-60
2021/12/16 05:30:29;;;;;;;;;;;7.30;93.80;;;;;;5006770;28;19917;-61
2021/12/16 05:32:54;;;;;;;;;;;7.40;93.80;;;;;;5006218;28;20500;-60
2021/12/16 05:35:20;;;;;;;;;;;7.30;93.80;;;;;;4990557;28;19923;-61
2021/12/16 05:37:45;;;;;;;;;;;7.30;93.80;;;;;;5006707;28;19963;-60
2021/12/16 05:40:11;;;;;;;;;;;7.30;93.90;;;;;;5008087;28;19921;-61
2021/12/16 05:42:37;;;;;;;;;;;7.30;93.90;;;;;;5007664;28;20375;-60
2021/12/16 05:45:03;;;;;;;;;;;7.30;94.00;;;;;;5007153;28;20328;-60
2021/12/16 05:47:29;;;;;;;;;;;7.30;93.90;;;;;;5005310;28;19917;-61
2021/12/16 05:49:54;;;;;;;;;;;7.30;94.00;;;;;;4991202;28;19909;-61
2021/12/16 05:52:20;;;;;;;;;;;7.20;94.00;;;;;;4990495;28;19917;-60
2021/12/16 05:54:45;;;;;;;;;;;7.20;93.90;;;;;;5022694;28;20357;-61
2021/12/16 05:57:11;;;;;;;;;;;7.20;93.90;;;;;;4990335;28;19944;-61
2021/12/16 05:59:36;;;;;;;;;;;7.20;94.00;;;;;;5006912;28;19910;-61
2021/12/16 06:02:02;;;;;;;;;;;7.20;94.10;;;;;;4990353;28;20393;-61
2021/12/16 06:04:27;;;;;;;;;;;7.30;94.10;;;;;;4990555;28;19921;-61
2021/12/16 06:06:53;;;;;;;;;;;7.20;94.00;;;;;;4989843;28;19917;-61
2021/12/16 06:09:19;;;;;;;;;;;7.30;94.00;;;;;;5007392;28;20335;-61
2021/12/16 06:11:45;;;;;;;;;;;7.20;93.90;;;;;;5006911;28;20359;-60
2021/12/16 06:14:26;;;;;;;;;;;7.30;93.90;;;;;;4988944;28;19913;-60
2021/12/16 06:27:52;;;;;;;;;;;7.20;93.70;;;;;;5008911;28;19919;-61
2021/12/16 06:30:19;;;;;;;;;;;7.20;93.70;;;;;;4998110;28;19953;-61
2021/12/16 06:32:44;;;;;;;;;;;7.20;93.70;;;;;;5005066;28;19920;-61
2021/12/16 06:35:10;;;;;;;;;;;7.20;93.70;;;;;;5001889;28;19913;-61
2021/12/16 06:37:35;;;;;;;;;;;7.20;93.70;;;;;;4998190;28;20403;-61
2021/12/16 06:40:01;;;;;;;;;;;7.30;93.70;;;;;;5023390;28;19921;-61
2021/12/16 06:42:27;;;;;;;;;;;7.20;93.60;;;;;;4994043;28;19968;-61
2021/12/16 06:45:01;;;;;;;;;;;7.20;93.60;;;;;;5003614;28;20365;-61
2021/12/16 06:47:36;;;;;;;;;;;7.20;93.60;;;;;;4989886;28;19917;-61
2021/12/16 06:50:01;;;;;;;;;;;7.20;93.60;;;;;;4993864;28;19913;-61
2021/12/16 06:52:34;;;;;;;;;;;7.20;93.70;;;;;;5002005;28;20284;-61
2021/12/16 07:00:22;;;;;;;;;;;7.20;93.50;;;;;;5005138;28;20152;-61
2021/12/16 07:05:22;;;;;;;;;;;7.20;93.50;;;;;;5011033;28;19921;-61
2021/12/16 07:07:48;;;;;;;;;;;7.20;93.50;;;;;;5025517;28;20075;-61
2021/12/16 07:10:14;;;;;;;;;;;7.20;93.50;;;;;;5008860;28;19953;-61
2021/12/16 07:12:46;;;;;;;;;;;7.20;93.50;;;;;;5024015;28;19955;-61
2021/12/16 07:15:12;;;;;;;;;;;7.20;93.50;;;;;;4992234;28;19927;-61
2021/12/16 07:17:38;;;;;;;;;;;7.20;93.50;;;;;;5009126;28;20280;-61
2021/12/16 07:20:04;;;;;;;;;;;7.20;93.40;;;;;;5008362;28;19932;-61
2021/12/16 07:22:29;;;;;;;;;;;7.20;93.50;;;;;;5021815;28;19929;-61
2021/12/16 07:24:55;;;;;;;;;;;7.20;93.50;;;;;;5006840;28;20396;-61
2021/12/16 07:27:20;;;;;;;;;;;7.20;93.50;;;;;;4985900;28;20042;-61
2021/12/16 07:29:45;;;;;;;;;;;7.10;93.50;;;;;;5005384;28;20021;-61
2021/12/16 07:32:11;;;;;;;;;;;7.20;93.60;;;;;;5003240;28;20248;-61
2021/12/16 07:34:36;;;;;;;;;;;7.10;93.50;;;;;;4990076;28;19920;-61
2021/12/16 07:37:04;;;;;;;;;;;7.10;93.50;;;;;;5011429;28;19930;-61
2021/12/16 07:39:37;;;;;;;;;;;7.10;93.60;;;;;;5021315;28;19949;-60
2021/12/16 07:42:03;;;;;;;;;;;7.10;93.60;;;;;;5006717;28;20443;-61
2021/12/16 07:44:28;;;;;;;;;;;7.10;93.60;;;;;;5021516;28;20384;-61
2021/12/16 07:46:54;;;;;;;;;;;7.20;93.70;;;;;;5000555;28;19933;-61
2021/12/16 07:49:21;;;;;;;;;;;7.10;93.90;;;;;;5004023;28;20000;-61
2021/12/16 07:51:47;;;;;;;;;;;7.10;93.60;;;;;;5001204;28;19946;-61
2021/12/16 07:54:13;;;;;;;;;;;7.10;93.70;;;;;;4990893;28;20526;-61
2021/12/16 07:56:38;;;;;;;;;;;7.10;93.60;;;;;;5003245;28;19921;-61
2021/12/16 07:59:04;;;;;;;;;;;7.10;93.60;;;;;;5018905;28;20324;-60
2021/12/16 08:01:29;;;;;;;;;;;7.10;93.60;;;;;;5006054;28;20065;-61
2021/12/16 08:03:55;;;;;;;;;;;7.10;93.50;;;;;;5006742;28;19986;-61
2021/12/16 08:06:22;;;;;;;;;;;7.10;93.50;;;;;;5002572;28;19940;-61
2021/12/16 08:08:49;;;;;;;;;;;7.10;93.50;;;;;;5004766;28;20011;-61
2021/12/16 08:11:14;;;;;;;;;;;7.20;93.60;;;;;;4989076;28;19925;-61
2021/12/16 08:13:40;;;;;;;;;;;7.10;93.60;;;;;;5002969;28;19921;-61
2021/12/16 08:16:05;;;;;;;;;;;7.10;93.50;;;;;;5019181;28;19921;-61
2021/12/16 08:18:31;;;;;;;;;;;7.10;93.60;;;;;;5006749;28;19913;-61
2021/12/16 08:20:57;;;;;;;;;;;7.10;93.50;;;;;;5006542;28;20307;-61
2021/12/16 08:23:22;;;;;;;;;;;7.10;93.60;;;;;;5003563;28;19920;-61
2021/12/16 08:25:48;;;;;;;;;;;7.10;93.50;;;;;;5020838;28;20400;-61
2021/12/16 08:28:13;;;;;;;;;;;7.10;93.60;;;;;;5003135;28;19924;-60
2021/12/16 08:30:40;;;;;;;;;;;7.20;93.60;;;;;;5019296;28;19917;-61
2021/12/16 08:33:09;;;;;;;;;;;7.10;93.50;;;;;;5002778;28;19920;-61
2021/12/16 08:35:35;;;;;;;;;;;7.20;93.60;;;;;;5004588;28;19917;-61
2021/12/16 08:38:00;;;;;;;;;;;7.10;93.60;;;;;;4986267;28;19920;-61
2021/12/16 08:40:26;;;;;;;;;;;7.10;93.70;;;;;;4990177;28;19963;-61
2021/12/16 08:42:51;;;;;;;;;;;7.10;93.70;;;;;;4999436;28;20035;-61
2021/12/16 08:45:18;;;;;;;;;;;7.10;93.70;;;;;;5004462;28;19979;-61
2021/12/16 08:47:44;;;;;;;;;;;7.10;93.60;;;;;;5005696;28;19945;-60
2021/12/16 08:50:09;;;;;;;;;;;7.10;93.70;;;;;;5001901;28;20276;-62
2021/12/16 08:52:35;;;;;;;;;;;7.10;93.70;;;;;;5003573;28;20361;-61
2021/12/16 08:55:00;;;;;;;;;;;7.10;93.70;;;;;;4989056;28;19921;-61
2021/12/16 08:57:26;;;;;;;;;;;7.20;93.70;;;;;;4986526;28;20258;-61
2021/12/16 08:59:52;;;;;;;;;;;7.10;93.60;;;;;;5005850;28;19923;-61
2021/12/16 09:02:19;;;;;;;;;;;7.20;93.70;;;;;;5003171;28;19925;-60
2021/12/16 09:04:45;;;;;;;;;;;7.20;93.60;;;;;;5005448;28;20300;-61
2021/12/16 09:07:10;;;;;;;;;;;7.20;93.70;;;;;;4989709;28;19925;-61
2021/12/16 09:09:36;;;;;;;;;;;7.10;93.60;;;;;;4988301;28;19917;-61
2021/12/16 09:12:25;;;;;;;;;;;7.10;93.50;;;;;;5002568;28;19917;-61
2021/12/16 09:14:49;;;;;;;;;;;7.20;93.80;;;;;;5015568;28;19924;-61
2021/12/16 09:17:14;;;;;;;;;;;7.10;93.50;;;;;;5003266;28;19921;-60
2021/12/16 09:19:41;;;;;;;;;;;7.10;93.50;;;;;;5019913;28;20060;-60
2021/12/16 09:22:06;;;;;;;;;;;7.10;93.50;;;;;;4988341;28;19923;-60
2021/12/16 09:24:32;;;;;;;;;;;7.20;93.60;;;;;;5017420;28;20003;-60
2021/12/16 09:26:58;;;;;;;;;;;7.10;93.60;;;;;;5017913;28;19944;-61
2021/12/16 09:29:23;;;;;;;;;;;7.10;93.60;;;;;;5002963;28;19913;-61
2021/12/16 09:31:48;;;;;;;;;;;7.10;93.60;;;;;;5003037;28;20459;-61
2021/12/16 09:34:14;;;;;;;;;;;7.10;93.60;;;;;;5001857;28;19931;-61
2021/12/16 09:36:40;;;;;;;;;;;7.10;93.60;;;;;;5001416;28;19927;-61
2021/12/16 09:39:06;;;;;;;;;;;7.10;93.60;;;;;;5003360;28;19956;-61
2021/12/16 09:41:31;;;;;;;;;;;7.20;93.60;;;;;;4987352;28;19975;-61
2021/12/16 09:43:57;;;;;;;;;;;7.10;93.50;;;;;;5001126;28;19933;-61
2021/12/16 09:46:23;;;;;;;;;;;7.20;93.50;;;;;;5001096;28;19925;-61
2021/12/16 09:48:49;;;;;;;;;;;7.20;93.50;;;;;;5003428;28;19921;-61
2021/12/16 09:51:20;;;;;;;;;;;7.30;93.50;;;;;;5018381;28;19917;-61
2021/12/16 09:53:46;;;;;;;;;;;7.20;93.40;;;;;;5003362;28;19920;-60
2021/12/16 09:56:11;;;;;;;;;;;7.20;93.50;;;;;;4989314;28;19913;-61
2021/12/16 09:58:38;;;;;;;;;;;7.20;93.50;;;;;;5003286;28;19925;-61
2021/12/16 10:01:04;;;;;;;;;;;7.20;93.40;;;;;;5015485;28;20300;-61
2021/12/16 10:03:29;;;;;;;;;;;7.20;93.40;;;;;;5020877;28;20541;-61
2021/12/16 10:05:55;;;;;;;;;;;7.30;93.40;;;;;;5003435;28;19925;-61
2021/12/16 10:08:21;;;;;;;;;;;7.20;93.40;;;;;;5020187;28;20356;-61
2021/12/16 10:10:46;;;;;;;;;;;7.30;93.50;;;;;;5004578;28;19982;-61
2021/12/16 10:13:19;;;;;;;;;;;7.50;93.60;;;;;;5002130;28;20154;-61
2021/12/16 10:18:14;;;;;;;;;;;7.30;93.40;;;;;;5005646;28;19979;-61
2021/12/16 10:20:41;;;;;;;;;;;7.30;93.30;;;;;;5005815;28;19917;-61
2021/12/16 10:23:08;;;;;;;;;;;7.30;93.30;;;;;;5009838;28;19994;-61
2021/12/16 10:25:41;;;;;;;;;;;7.30;93.40;;;;;;5005314;28;20009;-61
2021/12/16 10:28:09;;;;;;;;;;;7.30;93.30;;;;;;5002320;28;19923;-61
2021/12/16 10:30:36;;;;;;;;;;;7.40;93.40;;;;;;5019766;28;19913;-61
2021/12/16 10:33:15;;;;;;;;;;;7.30;93.40;;;;;;4988819;28;20100;-61
2021/12/16 10:35:41;;;;;;;;;;;7.40;93.30;;;;;;5020751;28;19922;-61
2021/12/16 10:38:07;;;;;;;;;;;7.40;93.20;;;;;;5025434;28;19920;-61
2021/12/16 10:40:35;;;;;;;;;;;7.40;93.20;;;;;;5005302;28;19974;-61
2021/12/16 10:43:06;;;;;;;;;;;7.40;93.20;;;;;;5021607;28;19925;-61
2021/12/16 10:45:33;;;;;;;;;;;7.40;93.20;;;;;;4984520;28;20005;-61
2021/12/16 10:48:08;;;;;;;;;;;7.40;93.20;;;;;;5004847;28;19936;-61
2021/12/16 10:50:53;;;;;;;;;;;7.40;93.10;;;;;;5014037;28;19966;-61
2021/12/16 10:53:37;;;;;;;;;;;7.40;93.10;;;;;;5021884;28;19956;-61
2021/12/16 10:56:03;;;;;;;;;;;7.40;93.00;;;;;;5023805;28;19996;-61
2021/12/16 10:58:47;;;;;;;;;;;7.40;93.10;;;;;;4988276;28;19917;-61
2021/12/16 11:01:30;;;;;;;;;;;7.40;93.10;;;;;;5022258;28;19925;-61
2021/12/16 11:03:56;;;;;;;;;;;7.40;93.10;;;;;;5024242;28;20005;-61
2021/12/16 11:06:25;;;;;;;;;;;7.40;93.10;;;;;;5020511;28;20008;-61
2021/12/16 11:08:50;;;;;;;;;;;7.50;93.00;;;;;;4999469;28;19924;-61
2021/12/16 11:11:16;;;;;;;;;;;7.40;93.00;;;;;;5005058;28;19921;-61
2021/12/16 11:13:41;;;;;;;;;;;7.40;93.00;;;;;;5003961;28;19928;-61
2021/12/16 11:16:07;;;;;;;;;;;7.40;93.00;;;;;;5004894;28;19994;-61
2021/12/16 11:18:34;;;;;;;;;;;7.40;93.00;;;;;;4989493;28;20016;-61
2021/12/16 11:21:07;;;;;;;;;;;7.40;92.90;;;;;;5003282;28;20299;-62
2021/12/16 11:23:34;;;;;;;;;;;7.50;92.90;;;;;;5003589;28;19917;-61
2021/12/16 11:25:59;;;;;;;;;;;7.50;92.90;;;;;;5004846;28;19929;-61
2021/12/16 11:28:54;;;;;;;;;;;7.50;92.90;;;;;;5004348;28;19921;-61
2021/12/16 11:31:23;;;;;;;;;;;7.40;92.80;;;;;;4993928;28;19935;-61
2021/12/16 11:33:53;;;;;;;;;;;7.40;92.80;;;;;;5006792;28;19996;-61
2021/12/16 11:36:20;;;;;;;;;;;7.50;92.70;;;;;;4988477;28;19913;-61
2021/12/16 11:38:49;;;;;;;;;;;7.50;92.70;;;;;;5020712;28;19913;-61
2021/12/16 11:41:16;;;;;;;;;;;7.50;92.70;;;;;;5000941;28;20067;-61
2021/12/16 11:43:47;;;;;;;;;;;7.50;92.70;;;;;;5001363;28;19919;-61
2021/12/16 11:46:23;;;;;;;;;;;7.50;92.70;;;;;;5020531;28;19925;-61
2021/12/16 11:48:49;;;;;;;;;;;7.50;92.70;;;;;;5002714;28;19917;-61
2021/12/16 11:51:16;;;;;;;;;;;7.50;92.80;;;;;;5005294;28;19920;-61
2021/12/16 11:53:46;;;;;;;;;;;7.50;92.70;;;;;;4985644;28;20729;-61
2021/12/16 11:56:12;;;;;;;;;;;7.70;92.80;;;;;;5003905;28;19921;-61
2021/12/16 11:58:39;;;;;;;;;;;7.60;92.90;;;;;;5001235;28;19928;-62
2021/12/16 12:01:11;;;;;;;;;;;7.60;92.70;;;;;;5013789;28;19925;-61
2021/12/16 12:03:37;;;;;;;;;;;7.70;92.70;;;;;;5010306;28;19967;-61
2021/12/16 12:06:02;;;;;;;;;;;7.60;92.70;;;;;;5002182;28;19929;-61
2021/12/16 12:08:29;;;;;;;;;;;7.60;92.60;;;;;;5003799;28;19921;-61
2021/12/16 12:11:00;;;;;;;;;;;7.60;92.60;;;;;;5023140;28;19952;-61
2021/12/16 12:13:27;;;;;;;;;;;7.60;92.60;;;;;;5001367;28;19920;-61
2021/12/16 12:16:01;;;;;;;;;;;7.60;92.50;;;;;;5002109;28;19917;-61
2021/12/16 12:18:36;;;;;;;;;;;7.60;92.50;;;;;;5020860;28;19921;-61
2021/12/16 12:21:20;;;;;;;;;;;7.60;92.50;;;;;;5020860;28;19928;-61
2021/12/16 12:23:45;;;;;;;;;;;7.60;92.50;;;;;;5006400;28;20342;-61
2021/12/16 12:26:16;;;;;;;;;;;7.70;92.50;;;;;;5018955;28;19921;-61
2021/12/16 12:28:43;;;;;;;;;;;7.60;92.50;;;;;;4985786;28;19914;-61
2021/12/16 12:31:08;;;;;;;;;;;7.60;92.40;;;;;;5002188;28;20008;-61
2021/12/16 12:33:33;;;;;;;;;;;7.70;92.50;;;;;;5017699;28;20000;-61
2021/12/16 12:35:59;;;;;;;;;;;7.70;92.40;;;;;;5018636;28;19917;-61
2021/12/16 12:38:24;;;;;;;;;;;7.60;92.40;;;;;;5001863;28;20584;-61
2021/12/16 12:40:50;;;;;;;;;;;7.70;92.60;;;;;;5015476;28;19917;-61
2021/12/16 12:43:16;;;;;;;;;;;7.70;92.60;;;;;;5003848;28;19975;-61
2021/12/16 12:45:41;;;;;;;;;;;7.70;92.60;;;;;;4997104;28;19916;-61
2021/12/16 12:48:10;;;;;;;;;;;7.70;92.70;;;;;;5003665;28;19921;-61
2021/12/16 12:50:37;;;;;;;;;;;7.70;92.50;;;;;;5001684;28;19913;-61
2021/12/16 12:53:10;;;;;;;;;;;7.70;92.40;;;;;;5005000;28;20003;-61
2021/12/16 12:55:36;;;;;;;;;;;7.80;92.40;;;;;;4985627;28;20384;-61
2021/12/16 12:58:05;;;;;;;;;;;7.80;92.40;;;;;;5012981;28;19921;-61
2021/12/16 13:00:32;;;;;;;;;;;7.80;92.40;;;;;;4986240;28;20344;-61
2021/12/16 13:02:58;;;;;;;;;;;7.80;92.40;;;;;;4985482;28;19929;-61
2021/12/16 13:05:24;;;;;;;;;;;7.80;92.40;;;;;;5020575;28;19952;-60
2021/12/16 13:07:54;;;;;;;;;;;7.80;92.40;;;;;;5016833;28;20426;-61
2021/12/16 13:10:21;;;;;;;;;;;7.80;92.30;;;;;;5001708;28;19912;-61
2021/12/16 13:12:57;;;;;;;;;;;7.80;92.40;;;;;;5003166;28;20569;-61
2021/12/16 13:15:38;;;;;;;;;;;7.80;92.40;;;;;;5001110;28;19956;-62
2021/12/16 13:23:31;;;;;;;;;;;7.90;92.30;;;;;;5005383;28;19986;-61
2021/12/16 13:28:41;;;;;;;;;;;7.90;92.30;;;;;;5019467;28;20203;-61
2021/12/16 13:31:24;;;;;;;;;;;7.90;92.30;;;;;;5004687;28;19967;-61
2021/12/16 13:33:53;;;;;;;;;;;7.90;92.30;;;;;;5000382;28;20094;-61
2021/12/16 13:36:28;;;;;;;;;;;8.00;92.40;;;;;;4987106;28;19913;-61
2021/12/16 13:38:54;;;;;;;;;;;8.00;92.40;;;;;;4999352;28;19924;-61
2021/12/16 13:41:20;;;;;;;;;;;8.00;92.40;;;;;;5019903;28;19913;-61
2021/12/16 13:44:01;;;;;;;;;;;8.00;92.40;;;;;;5000974;28;19921;-61
2021/12/16 13:46:35;;;;;;;;;;;8.00;92.40;;;;;;5004784;28;20298;-61
2021/12/16 14:03:18;;;;;;;;;;;8.10;92.20;;;;;;5006032;28;19979;-61
2021/12/16 14:08:34;;;;;;;;;;;8.00;92.20;;;;;;5007539;28;20055;-61
2021/12/16 14:11:11;;;;;;;;;;;8.00;92.20;;;;;;5006711;28;20353;-61
2021/12/16 14:16:39;;;;;;;;;;;8.10;92.20;;;;;;5023321;28;20047;-61
2021/12/16 14:24:58;;;;;;;;;;;8.10;92.20;;;;;;5024101;28;19929;-61
2021/12/16 14:41:06;;;;;;;;;;;8.10;92.10;;;;;;5003945;28;21035;-61
2021/12/16 14:44:19;;;;;;;;;;;8.20;92.00;;;;;;4990771;28;19909;-61
2021/12/16 14:46:24;;;;;;;;;;;8.10;92.00;;;;;;5020938;28;20090;-61
2021/12/16 14:48:51;;;;;;;;;;;8.20;92.00;;;;;;5024416;28;19921;-61
2021/12/16 14:51:17;;;;;;;;;;;8.20;92.10;;;;;;5021787;28;19913;-61
2021/12/16 14:53:43;;;;;;;;;;;8.20;92.00;;;;;;5023403;28;20393;-61
2021/12/16 14:56:10;;;;;;;;;;;8.20;91.90;;;;;;5007664;28;19994;-62
2021/12/16 14:58:36;;;;;;;;;;;8.20;91.90;;;;;;5002018;28;19925;-61
2021/12/16 15:01:15;;;;;;;;;;;8.20;91.90;;;;;;4999022;28;20265;-61
2021/12/16 15:03:42;;;;;;;;;;;8.20;91.90;;;;;;5023325;28;19917;-61
2021/12/16 15:06:11;;;;;;;;;;;8.20;91.90;;;;;;5033766;28;19917;-61
2021/12/16 15:08:50;;;;;;;;;;;8.20;91.80;;;;;;5038428;28;19967;-61
2021/12/16 15:11:19;;;;;;;;;;;8.20;91.80;;;;;;5023778;28;19917;-61
2021/12/16 15:13:53;;;;;;;;;;;8.20;91.80;;;;;;5019365;28;19929;-61
2021/12/16 15:16:35;;;;;;;;;;;8.20;91.80;;;;;;5006400;28;20716;-61
2021/12/16 15:38:20;;;;;;;;;;;8.20;91.80;;;;;;5020648;28;19933;-61
2021/12/16 15:40:59;;;;;;;;;;;8.20;91.80;;;;;;5021675;28;19925;-61
2021/12/16 15:43:31;;;;;;;;;;;8.20;91.90;;;;;;5017343;28;19932;-61
2021/12/16 15:45:57;;;;;;;;;;;8.20;91.80;;;;;;5020117;28;19925;-61
2021/12/16 15:48:26;;;;;;;;;;;8.20;91.90;;;;;;5013342;28;20570;-61
2021/12/16 15:50:54;;;;;;;;;;;8.20;91.80;;;;;;5032382;28;19963;-62
2021/12/16 15:53:31;;;;;;;;;;;8.20;92.00;;;;;;5015794;28;19924;-61
2021/12/16 15:56:06;;;;;;;;;;;8.20;92.10;;;;;;5018644;28;19921;-61
2021/12/16 15:58:42;;;;;;;;;;;8.20;92.00;;;;;;5014474;28;19983;-61
2021/12/16 16:01:10;;;;;;;;;;;8.20;92.30;;;;;;5030197;28;20348;-61
2021/12/16 16:03:35;;;;;;;;;;;8.20;91.90;;;;;;5017561;28;20007;-60
2021/12/16 16:06:02;;;;;;;;;;;8.20;91.80;;;;;;5015442;28;19927;-60
2021/12/16 16:08:30;;;;;;;;;;;8.20;91.70;;;;;;5030422;28;19975;-61
2021/12/16 16:10:58;;;;;;;;;;;8.20;91.70;;;;;;5018299;28;19995;-61
2021/12/16 16:13:24;;;;;;;;;;;8.20;91.50;;;;;;5028365;28;19921;-61
2021/12/16 16:15:50;;;;;;;;;;;8.20;91.50;;;;;;5018909;28;19918;-61
2021/12/16 16:18:34;;;;;;;;;;;7.90;91.50;;;;;;5015611;28;19929;-61
2021/12/16 16:21:06;;;;;;;;;;;8.20;91.60;;;;;;5018330;28;19921;-61
2021/12/16 16:23:33;;;;;;;;;;;8.30;91.60;;;;;;5034651;28;19928;-60
2021/12/16 16:26:01;;;;;;;;;;;8.20;91.90;;;;;;5016912;28;19948;-61
2021/12/16 16:28:27;;;;;;;;;;;8.20;91.60;;;;;;5017196;28;19960;-61
2021/12/16 16:30:53;;;;;;;;;;;8.20;91.40;;;;;;5015713;28;19945;-60
2021/12/16 16:33:19;;;;;;;;;;;8.20;91.40;;;;;;5016642;28;19919;-60
2021/12/16 16:35:47;;;;;;;;;;;8.20;91.40;;;;;;5034007;28;19912;-61
2021/12/16 16:38:14;;;;;;;;;;;8.20;91.40;;;;;;5015996;28;19942;-60
2021/12/16 16:40:40;;;;;;;;;;;8.20;91.50;;;;;;4995967;28;19955;-60
2021/12/16 16:43:19;;;;;;;;;;;8.20;91.60;;;;;;4997068;28;19974;-60
2021/12/16 16:45:47;;;;;;;;;;;8.20;91.50;;;;;;5030849;28;19929;-60
2021/12/16 16:51:17;;;;;;;;;;;8.30;91.40;;;;;;4996974;28;19998;-60
2021/12/16 16:54:03;;;;;;;;;;;8.30;91.40;;;;;;5012720;28;19925;-61
2021/12/16 16:56:33;;;;;;;;;;;8.30;91.40;;;;;;5015226;28;19924;-60
2021/12/16 16:59:03;;;;;;;;;;;8.30;91.30;;;;;;5012862;28;19975;-61
2021/12/16 17:01:29;;;;;;;;;;;8.30;91.40;;;;;;5015155;28;20043;-60
2021/12/16 17:03:55;;;;;;;;;;;8.30;91.50;;;;;;4980721;28;20048;-61
2021/12/16 17:06:20;;;;;;;;;;;8.30;91.50;;;;;;5012238;28;19937;-61
2021/12/16 17:08:47;;;;;;;;;;;8.30;91.40;;;;;;4981166;28;20428;-61
2021/12/16 17:11:15;;;;;;;;;;;8.30;91.30;;;;;;4996290;28;19921;-61
2021/12/16 17:18:36;;;;;;;;;;;8.40;91.30;;;;;;4996129;28;19914;-61
2021/12/16 17:21:10;;;;;;;;;;;8.40;91.40;;;;;;4983520;28;20032;-61
2021/12/16 17:23:35;;;;;;;;;;;8.40;91.40;;;;;;4998671;28;19921;-61
2021/12/16 17:26:01;;;;;;;;;;;8.40;91.40;;;;;;4978656;28;19921;-61
2021/12/16 17:28:27;;;;;;;;;;;8.40;91.50;;;;;;4992947;28;20023;-61
2021/12/16 17:30:52;;;;;;;;;;;8.50;91.50;;;;;;4981186;28;19965;-61
2021/12/16 17:33:22;;;;;;;;;;;8.40;91.60;;;;;;4996467;28;20131;-61
2021/12/16 17:35:48;;;;;;;;;;;8.50;91.70;;;;;;4994267;28;19925;-61
2021/12/16 17:38:24;;;;;;;;;;;8.50;91.60;;;;;;4999509;28;20352;-61
2021/12/16 17:40:50;;;;;;;;;;;8.50;91.70;;;;;;4984620;28;19964;-61
2021/12/16 17:43:23;;;;;;;;;;;8.70;91.70;;;;;;5001643;28;20356;-61
2021/12/16 17:45:50;;;;;;;;;;;8.60;91.60;;;;;;5013592;28;20391;-61
2021/12/16 17:48:20;;;;;;;;;;;8.60;91.70;;;;;;4980040;28;19921;-61
2021/12/16 17:50:46;;;;;;;;;;;8.60;91.80;;;;;;5013236;28;19929;-61
2021/12/16 17:53:12;;;;;;;;;;;8.60;92.10;;;;;;4997418;28;20004;-61
2021/12/16 17:55:45;;;;;;;;;;;8.70;91.80;;;;;;5007658;28;20184;-61
2021/12/16 17:58:13;;;;;;;;;;;8.70;92.00;;;;;;5006122;28;20015;-61
2021/12/16 18:00:45;;;;;;;;;;;8.80;91.80;;;;;;5012087;28;20172;-61
2021/12/16 18:03:15;;;;;;;;;;;8.70;91.90;;;;;;5010902;28;19956;-61
2021/12/16 18:05:42;;;;;;;;;;;8.70;91.90;;;;;;4980837;28;19936;-61
2021/12/16 18:08:07;;;;;;;;;;;8.70;91.90;;;;;;5000462;28;19975;-61
2021/12/16 18:10:33;;;;;;;;;;;8.80;91.90;;;;;;4999486;28;19921;-62
2021/12/16 18:12:58;;;;;;;;;;;8.80;91.90;;;;;;4999707;28;19925;-61
2021/12/16 18:15:25;;;;;;;;;;;9.10;92.00;;;;;;4997735;28;21668;-61